sensor_id;sensor_type;location;lat;lon;timestamp;P1;durP1;ratioP1;P2;durP2;ratioP2
26502;SDS011;14177;51.520;6.764;2023-12-14T00:01:40;8.57;;;5.32;;
26502;SDS011;14177;51.520;6.764;2023-12-14T00:04:08;10.75;;;5.75;;
26502;SDS011;14177;51.520;6.764;2023-12-14T00:06:35;8.48;;;5.43;;
26502;SDS011;14177;51.520;6.764;2023-12-14T00:09:02;9.63;;;6.20;;
26502;SDS011;14177;51.520;6.764;2023-12-14T00:11:29;10.40;;;5.40;;
26502;SDS011;14177;51.520;6.764;2023-12-14T00:13:56;10.90;;;6.03;;
26502;SDS011;14177;51.520;6.764;2023-12-14T00:16:23;8.43;;;5.20;;
26502;SDS011;14177;51.520;6.764;2023-12-14T00:18:50;8.75;;;5.18;;
26502;SDS011;14177;51.520;6.764;2023-12-14T00:21:17;8.88;;;5.88;;
26502;SDS011;14177;51.520;6.764;2023-12-14T00:23:44;9.32;;;5.50;;
26502;SDS011;14177;51.520;6.764;2023-12-14T00:26:11;10.05;;;5.53;;
26502;SDS011;14177;51.520;6.764;2023-12-14T00:28:38;7.88;;;4.95;;
26502;SDS011;14177;51.520;6.764;2023-12-14T00:31:06;8.70;;;5.30;;
26502;SDS011;14177;51.520;6.764;2023-12-14T00:33:33;10.60;;;5.43;;
26502;SDS011;14177;51.520;6.764;2023-12-14T00:36:00;8.20;;;4.68;;
26502;SDS011;14177;51.520;6.764;2023-12-14T00:38:27;8.52;;;4.82;;
26502;SDS011;14177;51.520;6.764;2023-12-14T00:40:54;8.63;;;4.75;;
26502;SDS011;14177;51.520;6.764;2023-12-14T00:43:21;7.53;;;5.05;;
26502;SDS011;14177;51.520;6.764;2023-12-14T00:45:48;8.10;;;4.88;;
26502;SDS011;14177;51.520;6.764;2023-12-14T00:48:15;8.07;;;4.80;;
26502;SDS011;14177;51.520;6.764;2023-12-14T00:50:42;7.57;;;4.55;;
26502;SDS011;14177;51.520;6.764;2023-12-14T00:53:09;7.22;;;4.60;;
26502;SDS011;14177;51.520;6.764;2023-12-14T00:55:36;8.88;;;4.10;;
26502;SDS011;14177;51.520;6.764;2023-12-14T00:58:03;6.63;;;4.38;;
26502;SDS011;14177;51.520;6.764;2023-12-14T01:00:30;8.95;;;5.70;;
26502;SDS011;14177;51.520;6.764;2023-12-14T01:02:57;8.48;;;5.22;;
26502;SDS011;14177;51.520;6.764;2023-12-14T01:05:24;9.95;;;6.05;;
26502;SDS011;14177;51.520;6.764;2023-12-14T01:07:51;10.35;;;6.32;;
26502;SDS011;14177;51.520;6.764;2023-12-14T01:10:18;10.95;;;6.43;;
26502;SDS011;14177;51.520;6.764;2023-12-14T01:12:45;10.02;;;6.10;;
26502;SDS011;14177;51.520;6.764;2023-12-14T01:15:13;9.65;;;5.93;;
26502;SDS011;14177;51.520;6.764;2023-12-14T01:17:40;12.15;;;6.82;;
26502;SDS011;14177;51.520;6.764;2023-12-14T01:20:07;12.35;;;6.35;;
26502;SDS011;14177;51.520;6.764;2023-12-14T01:22:35;10.00;;;6.47;;
26502;SDS011;14177;51.520;6.764;2023-12-14T01:25:03;10.63;;;6.93;;
26502;SDS011;14177;51.520;6.764;2023-12-14T01:27:31;14.25;;;8.05;;
26502;SDS011;14177;51.520;6.764;2023-12-14T01:29:58;13.23;;;7.43;;
26502;SDS011;14177;51.520;6.764;2023-12-14T01:32:25;16.70;;;8.30;;
26502;SDS011;14177;51.520;6.764;2023-12-14T01:34:52;12.63;;;7.75;;
26502;SDS011;14177;51.520;6.764;2023-12-14T01:37:19;11.75;;;7.22;;
26502;SDS011;14177;51.520;6.764;2023-12-14T01:39:46;14.30;;;7.80;;
26502;SDS011;14177;51.520;6.764;2023-12-14T01:42:13;13.35;;;7.60;;
26502;SDS011;14177;51.520;6.764;2023-12-14T01:44:40;13.98;;;8.20;;
26502;SDS011;14177;51.520;6.764;2023-12-14T01:47:07;15.93;;;7.90;;
26502;SDS011;14177;51.520;6.764;2023-12-14T01:49:34;15.23;;;9.32;;
26502;SDS011;14177;51.520;6.764;2023-12-14T01:52:01;15.50;;;8.73;;
26502;SDS011;14177;51.520;6.764;2023-12-14T01:54:28;17.02;;;9.15;;
26502;SDS011;14177;51.520;6.764;2023-12-14T01:56:55;15.65;;;8.68;;
26502;SDS011;14177;51.520;6.764;2023-12-14T01:59:22;16.67;;;9.00;;
26502;SDS011;14177;51.520;6.764;2023-12-14T02:01:53;16.52;;;9.13;;
26502;SDS011;14177;51.520;6.764;2023-12-14T02:04:23;17.30;;;10.07;;
26502;SDS011;14177;51.520;6.764;2023-12-14T02:06:51;15.25;;;9.07;;
26502;SDS011;14177;51.520;6.764;2023-12-14T02:09:18;15.90;;;8.90;;
26502;SDS011;14177;51.520;6.764;2023-12-14T02:11:45;15.20;;;8.27;;
26502;SDS011;14177;51.520;6.764;2023-12-14T02:14:12;18.45;;;9.38;;
26502;SDS011;14177;51.520;6.764;2023-12-14T02:16:40;14.18;;;7.93;;
26502;SDS011;14177;51.520;6.764;2023-12-14T02:19:07;18.52;;;9.68;;
26502;SDS011;14177;51.520;6.764;2023-12-14T02:21:34;14.65;;;8.55;;
26502;SDS011;14177;51.520;6.764;2023-12-14T02:24:01;15.38;;;8.90;;
26502;SDS011;14177;51.520;6.764;2023-12-14T02:26:28;15.73;;;8.48;;
26502;SDS011;14177;51.520;6.764;2023-12-14T02:28:55;14.02;;;7.93;;
26502;SDS011;14177;51.520;6.764;2023-12-14T02:31:22;18.67;;;8.55;;
26502;SDS011;14177;51.520;6.764;2023-12-14T02:33:49;15.43;;;8.38;;
26502;SDS011;14177;51.520;6.764;2023-12-14T02:36:17;16.05;;;8.80;;
26502;SDS011;14177;51.520;6.764;2023-12-14T02:38:44;15.82;;;8.60;;
26502;SDS011;14177;51.520;6.764;2023-12-14T02:41:11;17.92;;;8.77;;
26502;SDS011;14177;51.520;6.764;2023-12-14T02:43:38;14.27;;;8.20;;
26502;SDS011;14177;51.520;6.764;2023-12-14T02:46:06;16.10;;;8.95;;
26502;SDS011;14177;51.520;6.764;2023-12-14T02:48:34;17.70;;;9.60;;
26502;SDS011;14177;51.520;6.764;2023-12-14T02:51:02;16.95;;;8.32;;
26502;SDS011;14177;51.520;6.764;2023-12-14T02:53:29;16.25;;;8.30;;
26502;SDS011;14177;51.520;6.764;2023-12-14T02:55:56;16.40;;;8.70;;
26502;SDS011;14177;51.520;6.764;2023-12-14T02:58:28;16.63;;;8.35;;
26502;SDS011;14177;51.520;6.764;2023-12-14T03:00:56;17.38;;;9.55;;
26502;SDS011;14177;51.520;6.764;2023-12-14T03:03:23;18.20;;;9.02;;
26502;SDS011;14177;51.520;6.764;2023-12-14T03:05:50;19.13;;;10.65;;
26502;SDS011;14177;51.520;6.764;2023-12-14T03:08:17;18.77;;;9.00;;
26502;SDS011;14177;51.520;6.764;2023-12-14T03:10:44;17.73;;;8.95;;
26502;SDS011;14177;51.520;6.764;2023-12-14T03:13:11;20.13;;;10.75;;
26502;SDS011;14177;51.520;6.764;2023-12-14T03:15:38;23.40;;;10.93;;
26502;SDS011;14177;51.520;6.764;2023-12-14T03:18:05;18.55;;;10.43;;
26502;SDS011;14177;51.520;6.764;2023-12-14T03:20:32;19.13;;;10.43;;
26502;SDS011;14177;51.520;6.764;2023-12-14T03:22:59;20.15;;;10.60;;
26502;SDS011;14177;51.520;6.764;2023-12-14T03:25:26;22.10;;;11.07;;
26502;SDS011;14177;51.520;6.764;2023-12-14T03:27:54;22.98;;;11.55;;
26502;SDS011;14177;51.520;6.764;2023-12-14T03:30:21;23.27;;;11.45;;
26502;SDS011;14177;51.520;6.764;2023-12-14T03:32:48;22.55;;;11.52;;
26502;SDS011;14177;51.520;6.764;2023-12-14T03:35:15;23.80;;;11.85;;
26502;SDS011;14177;51.520;6.764;2023-12-14T03:37:42;22.98;;;11.65;;
26502;SDS011;14177;51.520;6.764;2023-12-14T03:40:09;23.45;;;12.00;;
26502;SDS011;14177;51.520;6.764;2023-12-14T03:42:39;27.40;;;11.65;;
26502;SDS011;14177;51.520;6.764;2023-12-14T03:45:06;24.85;;;11.18;;
26502;SDS011;14177;51.520;6.764;2023-12-14T03:47:34;24.02;;;11.35;;
26502;SDS011;14177;51.520;6.764;2023-12-14T03:50:01;19.83;;;11.23;;
26502;SDS011;14177;51.520;6.764;2023-12-14T03:52:29;21.45;;;10.68;;
26502;SDS011;14177;51.520;6.764;2023-12-14T03:54:58;23.60;;;12.25;;
26502;SDS011;14177;51.520;6.764;2023-12-14T03:57:24;21.50;;;10.98;;
26502;SDS011;14177;51.520;6.764;2023-12-14T03:59:51;22.48;;;11.48;;
26502;SDS011;14177;51.520;6.764;2023-12-14T04:02:18;26.77;;;12.23;;
26502;SDS011;14177;51.520;6.764;2023-12-14T04:04:45;21.30;;;10.52;;
26502;SDS011;14177;51.520;6.764;2023-12-14T04:07:13;22.63;;;11.07;;
26502;SDS011;14177;51.520;6.764;2023-12-14T04:09:41;20.55;;;10.90;;
26502;SDS011;14177;51.520;6.764;2023-12-14T04:12:08;23.23;;;11.07;;
26502;SDS011;14177;51.520;6.764;2023-12-14T04:14:35;22.58;;;10.95;;
26502;SDS011;14177;51.520;6.764;2023-12-14T04:17:02;24.20;;;11.27;;
26502;SDS011;14177;51.520;6.764;2023-12-14T04:19:29;22.10;;;10.60;;
26502;SDS011;14177;51.520;6.764;2023-12-14T04:21:56;20.95;;;10.02;;
26502;SDS011;14177;51.520;6.764;2023-12-14T04:24:23;20.63;;;10.15;;
26502;SDS011;14177;51.520;6.764;2023-12-14T04:26:50;20.17;;;10.50;;
26502;SDS011;14177;51.520;6.764;2023-12-14T04:29:17;20.05;;;10.75;;
26502;SDS011;14177;51.520;6.764;2023-12-14T04:31:44;24.08;;;11.55;;
26502;SDS011;14177;51.520;6.764;2023-12-14T04:34:11;25.77;;;11.48;;
26502;SDS011;14177;51.520;6.764;2023-12-14T04:36:42;23.95;;;11.95;;
26502;SDS011;14177;51.520;6.764;2023-12-14T04:39:11;24.60;;;11.20;;
26502;SDS011;14177;51.520;6.764;2023-12-14T04:41:38;21.77;;;11.45;;
26502;SDS011;14177;51.520;6.764;2023-12-14T04:44:05;23.60;;;11.30;;
26502;SDS011;14177;51.520;6.764;2023-12-14T04:46:32;20.92;;;10.52;;
26502;SDS011;14177;51.520;6.764;2023-12-14T04:48:59;20.35;;;10.93;;
26502;SDS011;14177;51.520;6.764;2023-12-14T04:51:27;20.65;;;11.23;;
26502;SDS011;14177;51.520;6.764;2023-12-14T04:53:54;19.95;;;10.75;;
26502;SDS011;14177;51.520;6.764;2023-12-14T04:56:21;18.63;;;10.38;;
26502;SDS011;14177;51.520;6.764;2023-12-14T04:58:48;19.25;;;10.30;;
26502;SDS011;14177;51.520;6.764;2023-12-14T05:01:15;21.88;;;11.52;;
26502;SDS011;14177;51.520;6.764;2023-12-14T05:03:41;22.30;;;11.52;;
26502;SDS011;14177;51.520;6.764;2023-12-14T05:06:08;21.55;;;10.93;;
26502;SDS011;14177;51.520;6.764;2023-12-14T05:08:35;22.80;;;10.65;;
26502;SDS011;14177;51.520;6.764;2023-12-14T05:11:02;24.17;;;11.18;;
26502;SDS011;14177;51.520;6.764;2023-12-14T05:13:30;22.00;;;11.88;;
26502;SDS011;14177;51.520;6.764;2023-12-14T05:15:57;20.63;;;10.45;;
26502;SDS011;14177;51.520;6.764;2023-12-14T05:18:24;20.23;;;10.65;;
26502;SDS011;14177;51.520;6.764;2023-12-14T05:20:52;25.08;;;12.43;;
26502;SDS011;14177;51.520;6.764;2023-12-14T05:23:19;26.88;;;11.93;;
26502;SDS011;14177;51.520;6.764;2023-12-14T05:25:46;23.13;;;11.63;;
26502;SDS011;14177;51.520;6.764;2023-12-14T05:28:14;24.45;;;11.85;;
26502;SDS011;14177;51.520;6.764;2023-12-14T05:30:42;25.55;;;12.02;;
26502;SDS011;14177;51.520;6.764;2023-12-14T05:33:09;24.83;;;12.38;;
26502;SDS011;14177;51.520;6.764;2023-12-14T05:35:38;26.58;;;12.15;;
26502;SDS011;14177;51.520;6.764;2023-12-14T05:38:05;27.88;;;11.93;;
26502;SDS011;14177;51.520;6.764;2023-12-14T05:40:32;26.75;;;12.30;;
26502;SDS011;14177;51.520;6.764;2023-12-14T05:42:59;28.83;;;12.35;;
26502;SDS011;14177;51.520;6.764;2023-12-14T05:45:26;26.27;;;12.95;;
26502;SDS011;14177;51.520;6.764;2023-12-14T05:47:53;34.97;;;14.10;;
26502;SDS011;14177;51.520;6.764;2023-12-14T05:50:21;31.77;;;15.02;;
26502;SDS011;14177;51.520;6.764;2023-12-14T05:52:49;30.23;;;15.00;;
26502;SDS011;14177;51.520;6.764;2023-12-14T05:55:17;36.45;;;14.90;;
26502;SDS011;14177;51.520;6.764;2023-12-14T05:57:48;27.10;;;14.35;;
26502;SDS011;14177;51.520;6.764;2023-12-14T06:00:15;35.30;;;15.48;;
26502;SDS011;14177;51.520;6.764;2023-12-14T06:02:44;34.08;;;16.05;;
26502;SDS011;14177;51.520;6.764;2023-12-14T06:05:11;34.55;;;15.35;;
26502;SDS011;14177;51.520;6.764;2023-12-14T06:07:39;32.70;;;15.85;;
26502;SDS011;14177;51.520;6.764;2023-12-14T06:10:06;34.75;;;16.05;;
26502;SDS011;14177;51.520;6.764;2023-12-14T06:12:33;32.08;;;16.50;;
26502;SDS011;14177;51.520;6.764;2023-12-14T06:15:01;34.20;;;15.50;;
26502;SDS011;14177;51.520;6.764;2023-12-14T06:17:28;32.33;;;15.80;;
26502;SDS011;14177;51.520;6.764;2023-12-14T06:19:57;36.53;;;16.85;;
26502;SDS011;14177;51.520;6.764;2023-12-14T06:22:24;28.75;;;14.57;;
26502;SDS011;14177;51.520;6.764;2023-12-14T06:24:51;32.65;;;15.82;;
26502;SDS011;14177;51.520;6.764;2023-12-14T06:27:18;39.35;;;16.00;;
26502;SDS011;14177;51.520;6.764;2023-12-14T06:29:45;36.03;;;16.45;;
26502;SDS011;14177;51.520;6.764;2023-12-14T06:32:12;35.25;;;15.10;;
26502;SDS011;14177;51.520;6.764;2023-12-14T06:34:39;30.17;;;15.10;;
26502;SDS011;14177;51.520;6.764;2023-12-14T06:37:07;33.38;;;15.75;;
26502;SDS011;14177;51.520;6.764;2023-12-14T06:39:34;31.27;;;15.80;;
26502;SDS011;14177;51.520;6.764;2023-12-14T06:42:02;38.80;;;17.23;;
26502;SDS011;14177;51.520;6.764;2023-12-14T06:44:29;35.50;;;15.90;;
26502;SDS011;14177;51.520;6.764;2023-12-14T06:46:59;39.15;;;17.08;;
26502;SDS011;14177;51.520;6.764;2023-12-14T06:49:26;38.00;;;16.77;;
26502;SDS011;14177;51.520;6.764;2023-12-14T06:51:53;35.10;;;17.65;;
26502;SDS011;14177;51.520;6.764;2023-12-14T06:54:20;33.58;;;16.52;;
26502;SDS011;14177;51.520;6.764;2023-12-14T06:56:47;41.50;;;17.27;;
26502;SDS011;14177;51.520;6.764;2023-12-14T06:59:14;35.33;;;16.98;;
26502;SDS011;14177;51.520;6.764;2023-12-14T07:01:42;36.42;;;17.15;;
26502;SDS011;14177;51.520;6.764;2023-12-14T07:04:10;39.65;;;18.95;;
26502;SDS011;14177;51.520;6.764;2023-12-14T07:06:41;36.83;;;17.55;;
26502;SDS011;14177;51.520;6.764;2023-12-14T07:09:09;39.60;;;19.23;;
26502;SDS011;14177;51.520;6.764;2023-12-14T07:11:36;36.65;;;17.88;;
26502;SDS011;14177;51.520;6.764;2023-12-14T07:14:02;35.72;;;17.08;;
26502;SDS011;14177;51.520;6.764;2023-12-14T07:16:29;34.38;;;17.35;;
26502;SDS011;14177;51.520;6.764;2023-12-14T07:18:56;35.25;;;16.92;;
26502;SDS011;14177;51.520;6.764;2023-12-14T07:21:24;38.78;;;17.42;;
26502;SDS011;14177;51.520;6.764;2023-12-14T07:23:51;28.90;;;15.73;;
26502;SDS011;14177;51.520;6.764;2023-12-14T07:26:18;34.33;;;16.90;;
26502;SDS011;14177;51.520;6.764;2023-12-14T07:28:45;35.42;;;16.83;;
26502;SDS011;14177;51.520;6.764;2023-12-14T07:31:12;34.83;;;16.90;;
26502;SDS011;14177;51.520;6.764;2023-12-14T07:33:39;34.30;;;17.15;;
26502;SDS011;14177;51.520;6.764;2023-12-14T07:36:06;36.03;;;18.20;;
26502;SDS011;14177;51.520;6.764;2023-12-14T07:38:33;39.58;;;17.63;;
26502;SDS011;14177;51.520;6.764;2023-12-14T07:41:00;36.33;;;16.58;;
26502;SDS011;14177;51.520;6.764;2023-12-14T07:43:27;35.95;;;17.08;;
26502;SDS011;14177;51.520;6.764;2023-12-14T07:45:55;37.25;;;15.68;;
26502;SDS011;14177;51.520;6.764;2023-12-14T07:48:22;33.83;;;15.65;;
26502;SDS011;14177;51.520;6.764;2023-12-14T07:50:49;32.10;;;15.15;;
26502;SDS011;14177;51.520;6.764;2023-12-14T07:53:18;32.15;;;15.60;;
26502;SDS011;14177;51.520;6.764;2023-12-14T07:55:45;36.20;;;16.55;;
26502;SDS011;14177;51.520;6.764;2023-12-14T07:58:12;30.05;;;15.50;;
26502;SDS011;14177;51.520;6.764;2023-12-14T08:00:39;35.83;;;16.02;;
26502;SDS011;14177;51.520;6.764;2023-12-14T08:03:07;32.03;;;15.40;;
26502;SDS011;14177;51.520;6.764;2023-12-14T08:05:34;31.27;;;15.30;;
26502;SDS011;14177;51.520;6.764;2023-12-14T08:08:01;38.28;;;16.02;;
26502;SDS011;14177;51.520;6.764;2023-12-14T08:10:28;30.55;;;15.35;;
26502;SDS011;14177;51.520;6.764;2023-12-14T08:12:55;28.20;;;14.02;;
26502;SDS011;14177;51.520;6.764;2023-12-14T08:15:22;30.65;;;15.77;;
26502;SDS011;14177;51.520;6.764;2023-12-14T08:17:49;34.90;;;15.10;;
26502;SDS011;14177;51.520;6.764;2023-12-14T08:20:16;29.60;;;15.05;;
26502;SDS011;14177;51.520;6.764;2023-12-14T08:22:44;29.27;;;15.20;;
26502;SDS011;14177;51.520;6.764;2023-12-14T08:25:12;36.10;;;17.35;;
26502;SDS011;14177;51.520;6.764;2023-12-14T08:27:43;29.27;;;15.43;;
26502;SDS011;14177;51.520;6.764;2023-12-14T08:30:11;31.73;;;15.77;;
26502;SDS011;14177;51.520;6.764;2023-12-14T08:32:39;34.25;;;17.20;;
26502;SDS011;14177;51.520;6.764;2023-12-14T08:35:07;27.52;;;14.80;;
26502;SDS011;14177;51.520;6.764;2023-12-14T08:37:35;29.10;;;14.23;;
26502;SDS011;14177;51.520;6.764;2023-12-14T08:40:04;31.05;;;15.77;;
26502;SDS011;14177;51.520;6.764;2023-12-14T08:42:33;27.08;;;13.60;;
26502;SDS011;14177;51.520;6.764;2023-12-14T08:45:01;26.85;;;13.65;;
26502;SDS011;14177;51.520;6.764;2023-12-14T08:47:28;29.67;;;14.55;;
26502;SDS011;14177;51.520;6.764;2023-12-14T08:49:55;29.48;;;13.80;;
26502;SDS011;14177;51.520;6.764;2023-12-14T08:52:23;30.85;;;15.70;;
26502;SDS011;14177;51.520;6.764;2023-12-14T08:54:52;24.98;;;13.90;;
26502;SDS011;14177;51.520;6.764;2023-12-14T08:57:21;27.33;;;14.38;;
26502;SDS011;14177;51.520;6.764;2023-12-14T08:59:52;28.77;;;14.93;;
26502;SDS011;14177;51.520;6.764;2023-12-14T09:02:25;29.35;;;13.50;;
26502;SDS011;14177;51.520;6.764;2023-12-14T09:04:58;25.25;;;13.35;;
26502;SDS011;14177;51.520;6.764;2023-12-14T09:07:51;27.70;;;13.02;;
26502;SDS011;14177;51.520;6.764;2023-12-14T09:12:23;27.05;;;13.60;;
26502;SDS011;14177;51.520;6.764;2023-12-14T09:25:37;23.05;;;12.15;;
26502;SDS011;14177;51.520;6.764;2023-12-14T09:28:37;20.85;;;11.43;;
26502;SDS011;14177;51.520;6.764;2023-12-14T09:31:26;20.15;;;11.13;;
26502;SDS011;14177;51.520;6.764;2023-12-14T09:34:22;21.02;;;11.60;;
26502;SDS011;14177;51.520;6.764;2023-12-14T09:36:52;17.88;;;10.63;;
26502;SDS011;14177;51.520;6.764;2023-12-14T09:39:22;21.83;;;11.98;;
26502;SDS011;14177;51.520;6.764;2023-12-14T09:41:50;21.02;;;12.10;;
26502;SDS011;14177;51.520;6.764;2023-12-14T09:44:17;20.77;;;11.38;;
26502;SDS011;14177;51.520;6.764;2023-12-14T09:46:44;18.73;;;10.90;;
26502;SDS011;14177;51.520;6.764;2023-12-14T09:49:15;18.58;;;11.30;;
26502;SDS011;14177;51.520;6.764;2023-12-14T09:51:44;24.25;;;11.93;;
26502;SDS011;14177;51.520;6.764;2023-12-14T09:54:11;22.65;;;11.20;;
26502;SDS011;14177;51.520;6.764;2023-12-14T09:56:45;22.05;;;12.45;;
26502;SDS011;14177;51.520;6.764;2023-12-14T10:01:43;16.85;;;9.57;;
26502;SDS011;14177;51.520;6.764;2023-12-14T10:04:15;19.95;;;11.02;;
26502;SDS011;14177;51.520;6.764;2023-12-14T10:06:47;20.42;;;11.32;;
26502;SDS011;14177;51.520;6.764;2023-12-14T10:09:23;19.50;;;9.88;;
26502;SDS011;14177;51.520;6.764;2023-12-14T10:12:08;18.13;;;9.57;;
26502;SDS011;14177;51.520;6.764;2023-12-14T10:14:37;16.67;;;10.02;;
26502;SDS011;14177;51.520;6.764;2023-12-14T10:19:54;17.42;;;9.38;;
26502;SDS011;14177;51.520;6.764;2023-12-14T10:22:23;18.58;;;9.40;;
26502;SDS011;14177;51.520;6.764;2023-12-14T10:25:20;21.08;;;9.50;;
26502;SDS011;14177;51.520;6.764;2023-12-14T10:27:47;15.77;;;8.55;;
26502;SDS011;14177;51.520;6.764;2023-12-14T10:30:14;15.32;;;8.73;;
26502;SDS011;14177;51.520;6.764;2023-12-14T10:32:41;16.73;;;8.85;;
26502;SDS011;14177;51.520;6.764;2023-12-14T10:35:09;14.10;;;7.15;;
26502;SDS011;14177;51.520;6.764;2023-12-14T10:37:37;12.75;;;7.28;;
26502;SDS011;14177;51.520;6.764;2023-12-14T10:40:06;15.25;;;7.97;;
26502;SDS011;14177;51.520;6.764;2023-12-14T10:42:36;13.38;;;7.63;;
26502;SDS011;14177;51.520;6.764;2023-12-14T10:45:13;15.73;;;7.38;;
26502;SDS011;14177;51.520;6.764;2023-12-14T10:47:47;13.80;;;7.88;;
26502;SDS011;14177;51.520;6.764;2023-12-14T10:50:16;14.40;;;8.18;;
26502;SDS011;14177;51.520;6.764;2023-12-14T10:52:45;14.30;;;8.10;;
26502;SDS011;14177;51.520;6.764;2023-12-14T10:57:51;15.75;;;8.52;;
26502;SDS011;14177;51.520;6.764;2023-12-14T11:00:19;15.07;;;7.88;;
26502;SDS011;14177;51.520;6.764;2023-12-14T11:02:47;16.17;;;8.43;;
26502;SDS011;14177;51.520;6.764;2023-12-14T11:05:15;13.75;;;7.40;;
26502;SDS011;14177;51.520;6.764;2023-12-14T11:07:52;12.25;;;6.63;;
26502;SDS011;14177;51.520;6.764;2023-12-14T11:10:26;13.20;;;7.13;;
26502;SDS011;14177;51.520;6.764;2023-12-14T11:13:02;12.15;;;7.22;;
26502;SDS011;14177;51.520;6.764;2023-12-14T11:15:36;12.63;;;6.97;;
26502;SDS011;14177;51.520;6.764;2023-12-14T11:23:11;9.88;;;6.13;;
26502;SDS011;14177;51.520;6.764;2023-12-14T11:25:40;9.45;;;5.82;;
26502;SDS011;14177;51.520;6.764;2023-12-14T11:28:12;11.23;;;6.13;;
26502;SDS011;14177;51.520;6.764;2023-12-14T11:30:40;11.65;;;6.50;;
26502;SDS011;14177;51.520;6.764;2023-12-14T11:33:21;11.23;;;6.57;;
26502;SDS011;14177;51.520;6.764;2023-12-14T11:35:50;10.60;;;6.20;;
26502;SDS011;14177;51.520;6.764;2023-12-14T11:38:21;11.32;;;6.10;;
26502;SDS011;14177;51.520;6.764;2023-12-14T11:40:50;12.23;;;7.05;;
26502;SDS011;14177;51.520;6.764;2023-12-14T11:43:17;13.05;;;6.85;;
26502;SDS011;14177;51.520;6.764;2023-12-14T11:45:47;11.95;;;6.18;;
26502;SDS011;14177;51.520;6.764;2023-12-14T11:48:15;11.68;;;6.65;;
26502;SDS011;14177;51.520;6.764;2023-12-14T11:50:43;9.93;;;6.03;;
26502;SDS011;14177;51.520;6.764;2023-12-14T11:53:11;10.68;;;6.45;;
26502;SDS011;14177;51.520;6.764;2023-12-14T11:55:42;11.63;;;6.07;;
26502;SDS011;14177;51.520;6.764;2023-12-14T11:58:11;11.52;;;6.20;;
26502;SDS011;14177;51.520;6.764;2023-12-14T12:00:42;10.35;;;6.10;;
26502;SDS011;14177;51.520;6.764;2023-12-14T12:03:11;13.18;;;6.90;;
26502;SDS011;14177;51.520;6.764;2023-12-14T12:05:41;11.18;;;6.18;;
26502;SDS011;14177;51.520;6.764;2023-12-14T12:08:14;12.35;;;6.43;;
26502;SDS011;14177;51.520;6.764;2023-12-14T12:10:45;15.40;;;6.85;;
26502;SDS011;14177;51.520;6.764;2023-12-14T12:13:15;12.63;;;6.97;;
26502;SDS011;14177;51.520;6.764;2023-12-14T12:15:43;14.75;;;6.50;;
26502;SDS011;14177;51.520;6.764;2023-12-14T12:18:12;12.70;;;6.97;;
26502;SDS011;14177;51.520;6.764;2023-12-14T12:20:43;11.38;;;6.50;;
26502;SDS011;14177;51.520;6.764;2023-12-14T12:23:10;15.60;;;7.45;;
26502;SDS011;14177;51.520;6.764;2023-12-14T12:25:37;12.05;;;7.10;;
26502;SDS011;14177;51.520;6.764;2023-12-14T12:28:04;12.55;;;6.78;;
26502;SDS011;14177;51.520;6.764;2023-12-14T12:30:31;12.63;;;7.03;;
26502;SDS011;14177;51.520;6.764;2023-12-14T12:32:59;12.23;;;7.18;;
26502;SDS011;14177;51.520;6.764;2023-12-14T12:35:27;12.40;;;6.47;;
26502;SDS011;14177;51.520;6.764;2023-12-14T12:37:56;11.23;;;5.82;;
26502;SDS011;14177;51.520;6.764;2023-12-14T12:40:24;13.05;;;7.20;;
26502;SDS011;14177;51.520;6.764;2023-12-14T12:42:56;9.30;;;5.95;;
26502;SDS011;14177;51.520;6.764;2023-12-14T12:45:23;11.68;;;6.47;;
26502;SDS011;14177;51.520;6.764;2023-12-14T12:47:53;12.38;;;7.03;;
26502;SDS011;14177;51.520;6.764;2023-12-14T12:50:21;13.15;;;6.40;;
26502;SDS011;14177;51.520;6.764;2023-12-14T12:52:48;12.07;;;7.43;;
26502;SDS011;14177;51.520;6.764;2023-12-14T12:55:16;10.77;;;6.60;;
26502;SDS011;14177;51.520;6.764;2023-12-14T12:57:43;10.77;;;6.32;;
26502;SDS011;14177;51.520;6.764;2023-12-14T13:00:10;14.82;;;6.82;;
26502;SDS011;14177;51.520;6.764;2023-12-14T13:02:38;11.57;;;6.88;;
26502;SDS011;14177;51.520;6.764;2023-12-14T13:05:08;13.80;;;6.10;;
26502;SDS011;14177;51.520;6.764;2023-12-14T13:07:44;9.85;;;6.05;;
26502;SDS011;14177;51.520;6.764;2023-12-14T13:10:12;12.68;;;6.95;;
26502;SDS011;14177;51.520;6.764;2023-12-14T13:12:56;11.95;;;6.97;;
26502;SDS011;14177;51.520;6.764;2023-12-14T13:15:23;11.30;;;6.57;;
26502;SDS011;14177;51.520;6.764;2023-12-14T13:17:55;11.48;;;6.60;;
26502;SDS011;14177;51.520;6.764;2023-12-14T13:20:23;13.85;;;7.13;;
26502;SDS011;14177;51.520;6.764;2023-12-14T13:22:50;10.55;;;6.85;;
26502;SDS011;14177;51.520;6.764;2023-12-14T13:25:17;13.85;;;7.38;;
26502;SDS011;14177;51.520;6.764;2023-12-14T13:27:45;11.13;;;6.78;;
26502;SDS011;14177;51.520;6.764;2023-12-14T13:30:13;10.27;;;6.68;;
26502;SDS011;14177;51.520;6.764;2023-12-14T13:32:44;13.20;;;6.75;;
26502;SDS011;14177;51.520;6.764;2023-12-14T13:35:12;13.60;;;6.93;;
26502;SDS011;14177;51.520;6.764;2023-12-14T13:37:39;13.70;;;6.70;;
26502;SDS011;14177;51.520;6.764;2023-12-14T13:40:06;11.15;;;6.60;;
26502;SDS011;14177;51.520;6.764;2023-12-14T13:42:36;9.98;;;6.30;;
26502;SDS011;14177;51.520;6.764;2023-12-14T13:45:15;11.20;;;6.18;;
26502;SDS011;14177;51.520;6.764;2023-12-14T13:47:43;9.80;;;5.93;;
26502;SDS011;14177;51.520;6.764;2023-12-14T13:50:10;10.20;;;5.95;;
26502;SDS011;14177;51.520;6.764;2023-12-14T13:52:37;12.70;;;6.88;;
26502;SDS011;14177;51.520;6.764;2023-12-14T13:55:04;12.95;;;6.47;;
26502;SDS011;14177;51.520;6.764;2023-12-14T13:57:32;22.95;;;9.85;;
26502;SDS011;14177;51.520;6.764;2023-12-14T13:59:59;20.15;;;9.65;;
26502;SDS011;14177;51.520;6.764;2023-12-14T14:02:26;12.40;;;7.35;;
26502;SDS011;14177;51.520;6.764;2023-12-14T14:04:54;11.07;;;6.88;;
26502;SDS011;14177;51.520;6.764;2023-12-14T14:07:22;12.48;;;6.43;;
26502;SDS011;14177;51.520;6.764;2023-12-14T14:09:49;11.57;;;6.63;;
26502;SDS011;14177;51.520;6.764;2023-12-14T14:12:15;12.60;;;6.90;;
26502;SDS011;14177;51.520;6.764;2023-12-14T14:14:43;13.30;;;7.28;;
26502;SDS011;14177;51.520;6.764;2023-12-14T14:17:10;9.63;;;5.70;;
26502;SDS011;14177;51.520;6.764;2023-12-14T14:19:38;11.57;;;6.57;;
26502;SDS011;14177;51.520;6.764;2023-12-14T14:22:05;12.15;;;6.90;;
26502;SDS011;14177;51.520;6.764;2023-12-14T14:24:32;14.63;;;8.20;;
26502;SDS011;14177;51.520;6.764;2023-12-14T14:26:59;18.45;;;8.75;;
26502;SDS011;14177;51.520;6.764;2023-12-14T14:29:26;13.60;;;8.35;;
26502;SDS011;14177;51.520;6.764;2023-12-14T14:31:53;13.73;;;8.02;;
26502;SDS011;14177;51.520;6.764;2023-12-14T14:34:20;11.68;;;5.95;;
26502;SDS011;14177;51.520;6.764;2023-12-14T14:36:50;16.15;;;7.03;;
26502;SDS011;14177;51.520;6.764;2023-12-14T14:39:17;12.70;;;6.80;;
26502;SDS011;14177;51.520;6.764;2023-12-14T14:41:45;11.88;;;6.78;;
26502;SDS011;14177;51.520;6.764;2023-12-14T14:44:12;12.35;;;6.57;;
26502;SDS011;14177;51.520;6.764;2023-12-14T14:46:39;9.35;;;6.22;;
26502;SDS011;14177;51.520;6.764;2023-12-14T14:49:06;12.65;;;7.15;;
26502;SDS011;14177;51.520;6.764;2023-12-14T14:51:34;10.60;;;6.30;;
26502;SDS011;14177;51.520;6.764;2023-12-14T14:54:01;10.88;;;5.82;;
26502;SDS011;14177;51.520;6.764;2023-12-14T14:56:28;10.10;;;6.07;;
26502;SDS011;14177;51.520;6.764;2023-12-14T14:58:55;11.73;;;6.25;;
26502;SDS011;14177;51.520;6.764;2023-12-14T15:01:35;10.23;;;5.32;;
26502;SDS011;14177;51.520;6.764;2023-12-14T15:04:06;13.13;;;7.50;;